Time;durP1;ratioP1;P1;durP2;ratioP2;P2;SDS_P1;SDS_P2;PMS_P1;PMS_P2;Temp;Humidity;BMP_temperature;BMP_pressure;BME280_temperature;BME280_humidity;BME280_pressure;Samples;Min_cycle;Max_cycle;Signal;HPM_P1;HPM_P2
2023/05/22 00:00:09;;;;;;;27.20;22.92;;;18.00;99.90;;;;;;5003878;28;20028;-70
2023/05/22 00:02:41;;;;;;;27.13;23.55;;;18.00;99.90;;;;;;5020509;28;20740;-70
2023/05/22 00:05:09;;;;;;;22.60;19.75;;;18.00;99.90;;;;;;5016207;28;20041;-70
2023/05/22 00:07:36;;;;;;;20.85;17.33;;;18.00;99.90;;;;;;5014378;28;20032;-70
2023/05/22 00:10:04;;;;;;;21.35;19.15;;;18.00;99.90;;;;;;5008758;28;20241;-71
2023/05/22 00:12:30;;;;;;;22.15;19.25;;;17.90;99.90;;;;;;5010330;28;20040;-71
2023/05/22 00:14:56;;;;;;;20.83;18.60;;;17.90;99.90;;;;;;5013382;28;20040;-72
2023/05/22 00:17:25;;;;;;;18.23;16.33;;;17.90;99.90;;;;;;5017722;28;20029;-71
2023/05/22 00:19:52;;;;;;;22.55;19.05;;;18.00;99.90;;;;;;5019212;28;20039;-71
2023/05/22 00:22:19;;;;;;;19.58;17.55;;;17.90;99.90;;;;;;5022386;28;20029;-72
2023/05/22 00:24:46;;;;;;;17.83;16.02;;;17.90;99.90;;;;;;4995778;28;20475;-71
2023/05/22 00:27:12;;;;;;;17.77;15.48;;;18.00;99.90;;;;;;5007443;28;20057;-71
2023/05/22 00:29:38;;;;;;;19.98;17.65;;;17.90;99.90;;;;;;5005323;28;20055;-71
2023/05/22 00:32:05;;;;;;;18.75;16.80;;;17.90;99.90;;;;;;5010892;28;20025;-71
2023/05/22 00:34:31;;;;;;;25.08;21.50;;;17.90;99.90;;;;;;5011106;28;20055;-70
2023/05/22 00:36:58;;;;;;;23.85;21.25;;;17.90;99.90;;;;;;5010331;28;20044;-71
2023/05/22 00:39:24;;;;;;;25.75;20.33;;;17.80;99.90;;;;;;5001275;28;21625;-70
2023/05/22 00:41:50;;;;;;;19.92;16.80;;;17.80;99.90;;;;;;5022388;28;20249;-71
2023/05/22 00:44:17;;;;;;;20.75;17.48;;;17.80;99.90;;;;;;5018066;28;20052;-70
2023/05/22 00:46:43;;;;;;;18.95;16.60;;;17.70;99.90;;;;;;4994388;28;20040;-71
2023/05/22 00:49:09;;;;;;;21.13;18.08;;;17.70;99.90;;;;;;5009479;28;20048;-70
2023/05/22 00:51:36;;;;;;;22.27;17.92;;;17.60;99.90;;;;;;5009450;28;20056;-71
2023/05/22 00:54:04;;;;;;;25.83;20.20;;;17.50;99.90;;;;;;5013124;28;20037;-71
2023/05/22 00:56:32;;;;;;;20.65;17.50;;;17.40;99.90;;;;;;5011907;28;20487;-70
2023/05/22 00:58:58;;;;;;;22.90;19.40;;;17.40;99.90;;;;;;4997772;28;20500;-71
2023/05/22 01:01:25;;;;;;;21.80;19.45;;;17.30;99.90;;;;;;5016996;28;20063;-71
2023/05/22 01:03:52;;;;;;;29.33;20.15;;;17.20;99.90;;;;;;5003062;28;20045;-71
2023/05/22 01:06:20;;;;;;;20.60;16.92;;;17.20;99.90;;;;;;5014082;28;20025;-70
2023/05/22 01:08:46;;;;;;;19.77;17.67;;;17.10;99.90;;;;;;5011686;28;20274;-71
2023/05/22 01:11:26;;;;;;;20.85;18.08;;;17.10;99.90;;;;;;4990465;28;20044;-70
2023/05/22 01:14:20;;;;;;;20.65;16.35;;;17.00;99.90;;;;;;5009668;28;23161;-71
2023/05/22 01:17:01;;;;;;;20.35;16.52;;;17.00;99.90;;;;;;5012454;28;20030;-70
2023/05/22 01:20:08;;;;;;;17.73;14.52;;;17.00;99.90;;;;;;4990482;28;20695;-70
2023/05/22 01:22:57;;;;;;;20.20;15.80;;;16.90;99.90;;;;;;5018606;28;20041;-71
2023/05/22 01:25:46;;;;;;;15.73;12.88;;;16.90;99.90;;;;;;5003261;28;20056;-70
2023/05/22 01:28:43;;;;;;;17.13;14.40;;;16.80;99.90;;;;;;5012414;28;20025;-70
2023/05/22 01:31:27;;;;;;;14.80;12.82;;;16.80;99.90;;;;;;5007077;28;20079;-71
2023/05/22 01:33:57;;;;;;;14.32;12.82;;;16.80;99.90;;;;;;5010274;28;20036;-71
2023/05/22 01:36:28;;;;;;;20.35;14.75;;;16.80;99.90;;;;;;4994633;28;20025;-70
2023/05/22 01:38:55;;;;;;;16.95;13.80;;;16.80;99.90;;;;;;4997381;28;20040;-70
2023/05/22 01:41:22;;;;;;;22.77;18.83;;;16.80;99.90;;;;;;4973087;28;20375;-71
2023/05/22 01:43:48;;;;;;;19.33;16.67;;;16.80;99.90;;;;;;5018619;28;20940;-70
2023/05/22 01:46:15;;;;;;;18.17;15.13;;;16.80;99.90;;;;;;5021877;28;20033;-70
2023/05/22 01:48:41;;;;;;;18.13;16.17;;;16.80;99.90;;;;;;5013755;28;20040;-71
2023/05/22 01:51:17;;;;;;;17.95;15.40;;;16.80;99.90;;;;;;5001909;28;20044;-71
2023/05/22 01:54:02;;;;;;;20.65;16.48;;;16.80;99.90;;;;;;4993382;28;20040;-71
2023/05/22 01:56:35;;;;;;;17.42;13.85;;;16.80;99.90;;;;;;5009633;28;20044;-71
2023/05/22 01:59:20;;;;;;;18.73;15.32;;;16.80;99.90;;;;;;5007866;28;20492;-70
2023/05/22 02:01:50;;;;;;;20.15;15.70;;;16.80;99.90;;;;;;5009790;28;20511;-71
2023/05/22 02:04:20;;;;;;;20.55;16.38;;;16.80;99.90;;;;;;5001397;28;20333;-70
2023/05/22 02:06:47;;;;;;;19.48;15.75;;;16.80;99.90;;;;;;5020972;28;20021;-71
2023/05/22 02:09:16;;;;;;;18.40;15.45;;;16.80;99.90;;;;;;4999120;28;20107;-71
2023/05/22 02:11:42;;;;;;;21.02;16.42;;;16.80;99.90;;;;;;5009842;28;20040;-71
2023/05/22 02:14:11;;;;;;;15.63;12.95;;;16.80;99.90;;;;;;5009879;28;20040;-71
2023/05/22 02:16:37;;;;;;;18.15;13.85;;;16.80;99.90;;;;;;4991061;28;20724;-71
2023/05/22 02:19:06;;;;;;;14.80;12.77;;;16.80;99.90;;;;;;5004166;28;20048;-70
2023/05/22 02:21:35;;;;;;;17.15;13.40;;;16.70;99.90;;;;;;5005823;28;21015;-71
2023/05/22 02:24:02;;;;;;;17.35;15.52;;;16.70;99.90;;;;;;5013698;28;20044;-70
2023/05/22 02:26:28;;;;;;;15.77;13.30;;;16.70;99.90;;;;;;5022330;28;20017;-71
2023/05/22 02:28:55;;;;;;;17.73;15.43;;;16.60;99.90;;;;;;5017347;28;20040;-71
2023/05/22 02:31:21;;;;;;;22.45;15.73;;;16.50;99.90;;;;;;5004921;28;20555;-70
2023/05/22 02:33:47;;;;;;;16.58;14.10;;;16.50;99.90;;;;;;4992257;28;20021;-70
2023/05/22 02:36:14;;;;;;;21.15;17.52;;;16.40;99.90;;;;;;5012092;28;20491;-70
2023/05/22 02:38:40;;;;;;;18.77;16.05;;;16.40;99.90;;;;;;5025154;28;20032;-70
2023/05/22 02:41:07;;;;;;;20.73;18.08;;;16.30;99.90;;;;;;5004909;28;20037;-70
2023/05/22 02:43:33;;;;;;;20.45;15.52;;;16.30;99.90;;;;;;5009598;28;21080;-71
2023/05/22 02:45:59;;;;;;;16.00;14.25;;;16.20;99.90;;;;;;5019033;28;20045;-71
2023/05/22 02:48:28;;;;;;;12.52;11.18;;;16.20;99.90;;;;;;5017250;28;20048;-71
2023/05/22 02:50:54;;;;;;;23.55;19.65;;;16.10;99.90;;;;;;5009514;28;20064;-71
2023/05/22 02:53:20;;;;;;;27.65;21.17;;;16.10;99.90;;;;;;5008570;28;20036;-70
2023/05/22 02:55:47;;;;;;;21.55;18.23;;;16.10;99.90;;;;;;4989620;28;20268;-71
2023/05/22 02:58:13;;;;;;;22.63;15.93;;;16.00;99.90;;;;;;5006350;28;20365;-71
2023/05/22 03:00:40;;;;;;;19.55;15.70;;;16.00;99.90;;;;;;4974050;28;20044;-71
2023/05/22 03:03:06;;;;;;;17.77;14.60;;;15.90;99.90;;;;;;5010192;28;21490;-70
2023/05/22 03:05:32;;;;;;;17.38;13.30;;;15.90;99.90;;;;;;5001109;28;20107;-71
2023/05/22 03:07:59;;;;;;;15.75;14.07;;;15.90;99.90;;;;;;5005008;28;20707;-71
2023/05/22 03:10:25;;;;;;;16.13;13.50;;;15.90;99.90;;;;;;5007920;28;20076;-70
2023/05/22 03:12:52;;;;;;;15.02;13.38;;;15.90;99.90;;;;;;5006356;28;20520;-70
2023/05/22 03:15:19;;;;;;;15.38;12.52;;;15.90;99.90;;;;;;5008985;28;20035;-70
2023/05/22 03:17:46;;;;;;;16.05;13.02;;;15.90;99.90;;;;;;5022082;28;20590;-70
2023/05/22 03:20:16;;;;;;;16.40;13.30;;;15.90;99.90;;;;;;5003424;28;20033;-70
2023/05/22 03:22:43;;;;;;;16.23;13.77;;;15.90;99.90;;;;;;4977007;28;20056;-71
2023/05/22 03:25:09;;;;;;;16.00;12.98;;;15.90;99.90;;;;;;5011806;28;20237;-71
2023/05/22 03:27:38;;;;;;;16.05;14.45;;;15.90;99.90;;;;;;5004230;28;20033;-71
2023/05/22 03:30:06;;;;;;;18.45;14.45;;;15.90;99.90;;;;;;5013815;28;20033;-70
2023/05/22 03:32:36;;;;;;;17.40;14.45;;;15.90;99.90;;;;;;4995276;28;20033;-70
2023/05/22 03:35:04;;;;;;;15.30;13.70;;;15.90;99.90;;;;;;4992605;28;20412;-71
2023/05/22 03:37:30;;;;;;;15.35;13.52;;;15.80;99.90;;;;;;5008437;28;20037;-71
2023/05/22 03:39:56;;;;;;;20.42;13.75;;;15.80;99.90;;;;;;5003357;28;20040;-72
2023/05/22 03:42:29;;;;;;;;;;;15.80;99.90;;;;;;4993092;28;20435;-71
2023/05/22 03:44:56;;;;;;;19.15;14.95;;;15.80;99.90;;;;;;5010542;28;19925;-71
2023/05/22 03:47:24;;;;;;;17.88;14.82;;;15.80;99.90;;;;;;5021633;28;20383;-72
2023/05/22 03:49:50;;;;;;;16.98;14.98;;;15.80;99.90;;;;;;5015790;28;20048;-72
2023/05/22 03:52:17;;;;;;;16.65;14.82;;;15.80;99.90;;;;;;5017109;28;20509;-71
2023/05/22 03:54:43;;;;;;;14.45;12.48;;;15.80;99.90;;;;;;4994680;28;20036;-71
2023/05/22 03:57:09;;;;;;;17.30;14.15;;;15.80;99.90;;;;;;5011603;28;20488;-72
2023/05/22 03:59:36;;;;;;;14.15;12.18;;;15.80;99.90;;;;;;4989976;28;20044;-71
2023/05/22 04:02:03;;;;;;;13.88;12.45;;;15.80;99.90;;;;;;5009842;28;20048;-71
2023/05/22 04:04:29;;;;;;;19.90;16.00;;;15.80;99.90;;;;;;4992589;28;20685;-71
2023/05/22 04:06:56;;;;;;;17.58;14.60;;;15.80;99.90;;;;;;5014437;28;20040;-72
2023/05/22 04:09:26;;;;;;;17.23;15.07;;;15.80;99.90;;;;;;5019690;28;20052;-71
2023/05/22 04:11:52;;;;;;;17.83;15.90;;;15.80;99.90;;;;;;5004263;28;20332;-71
2023/05/22 04:14:19;;;;;;;15.40;13.43;;;15.70;99.90;;;;;;5030908;28;20032;-71
2023/05/22 04:16:46;;;;;;;17.15;15.35;;;15.70;99.90;;;;;;5008714;28;20032;-71
2023/05/22 04:19:12;;;;;;;18.15;15.30;;;15.70;99.90;;;;;;4991725;28;20453;-71
2023/05/22 04:21:39;;;;;;;17.35;13.75;;;15.70;99.90;;;;;;4989802;28;20040;-72
2023/05/22 04:24:09;;;;;;;20.38;15.82;;;15.70;99.90;;;;;;5008571;28;20037;-72
2023/05/22 04:26:37;;;;;;;15.98;14.18;;;15.70;99.90;;;;;;4995216;28;20045;-72
2023/05/22 04:29:09;;;;;;;17.15;14.27;;;15.70;99.90;;;;;;5018602;28;20356;-72
2023/05/22 04:31:36;;;;;;;20.92;17.02;;;15.70;99.90;;;;;;5020433;28;20464;-71
2023/05/22 04:34:03;;;;;;;16.15;13.95;;;15.70;99.90;;;;;;5017999;28;20797;-71
2023/05/22 04:36:29;;;;;;;25.45;22.23;;;15.70;99.90;;;;;;4992395;28;20041;-72
2023/05/22 04:38:56;;;;;;;19.15;16.70;;;15.60;99.90;;;;;;5010020;28;20047;-71
2023/05/22 04:41:25;;;;;;;26.50;21.27;;;15.60;99.90;;;;;;5002784;28;20044;-72
2023/05/22 04:43:53;;;;;;;20.88;17.13;;;15.60;99.90;;;;;;5010547;28;20052;-71
2023/05/22 04:46:19;;;;;;;19.02;15.77;;;15.60;99.90;;;;;;5027656;28;20530;-71
2023/05/22 04:48:46;;;;;;;18.50;15.15;;;15.60;99.90;;;;;;5017977;28;20331;-72
2023/05/22 04:51:13;;;;;;;20.65;16.20;;;15.60;99.90;;;;;;5000072;28;20037;-72
2023/05/22 04:53:39;;;;;;;16.92;15.13;;;15.70;99.90;;;;;;5003925;28;20510;-72
2023/05/22 04:56:06;;;;;;;13.23;11.82;;;15.70;99.90;;;;;;4995037;28;20052;-72
2023/05/22 04:58:33;;;;;;;17.08;14.15;;;15.70;99.90;;;;;;5025923;28;20416;-72
2023/05/22 05:01:00;;;;;;;19.98;16.60;;;15.70;99.90;;;;;;5005164;28;20500;-72
2023/05/22 05:03:27;;;;;;;15.10;13.18;;;15.70;99.90;;;;;;5011505;28;20040;-71
2023/05/22 05:05:53;;;;;;;22.25;18.73;;;15.80;99.90;;;;;;5009525;28;20044;-72
2023/05/22 05:08:20;;;;;;;17.55;15.73;;;15.80;99.90;;;;;;4999467;28;20033;-72
2023/05/22 05:10:47;;;;;;;14.25;12.75;;;15.90;99.90;;;;;;5015414;28;20040;-72
2023/05/22 05:13:13;;;;;;;19.77;17.75;;;16.00;99.90;;;;;;5017478;28;20048;-72
2023/05/22 05:15:45;;;;;;;22.87;19.03;;;16.10;99.90;;;;;;5011663;28;20048;-71
2023/05/22 05:18:11;;;;;;;22.75;20.38;;;16.30;99.90;;;;;;5011509;28;20395;-71
2023/05/22 05:20:38;;;;;;;20.90;18.88;;;16.40;99.90;;;;;;4987589;28;20045;-71
2023/05/22 05:23:04;;;;;;;18.50;16.75;;;16.50;99.90;;;;;;5009918;28;20036;-71
2023/05/22 05:25:30;;;;;;;17.10;15.48;;;16.50;99.90;;;;;;5009503;28;20103;-71
2023/05/22 05:27:57;;;;;;;12.95;11.60;;;16.60;99.90;;;;;;5001062;28;20032;-72
2023/05/22 05:30:23;;;;;;;15.70;14.15;;;16.60;99.90;;;;;;5013382;28;20041;-71
2023/05/22 05:33:07;;;;;;;15.55;14.07;;;16.60;99.90;;;;;;5005373;28;20033;-71
2023/05/22 05:35:42;;;;;;;14.90;13.40;;;16.60;99.90;;;;;;4994913;28;20029;-72
2023/05/22 05:38:10;;;;;;;16.42;14.95;;;16.70;99.90;;;;;;4991126;28;20036;-72
2023/05/22 05:40:39;;;;;;;19.67;17.88;;;16.70;99.90;;;;;;4988717;28;20052;-71
2023/05/22 05:43:07;;;;;;;27.33;24.63;;;16.60;99.90;;;;;;5008852;28;20040;-71
2023/05/22 05:45:34;;;;;;;17.55;15.85;;;16.60;99.90;;;;;;4993689;28;20056;-71
2023/05/22 05:48:01;;;;;;;16.25;14.75;;;16.50;99.90;;;;;;5013665;28;20044;-71
2023/05/22 05:50:28;;;;;;;21.98;19.73;;;16.60;99.90;;;;;;4995760;28;20052;-71
2023/05/22 05:52:54;;;;;;;14.73;13.25;;;16.60;99.90;;;;;;5020639;28;20049;-71
2023/05/22 05:55:21;;;;;;;20.30;18.35;;;16.70;99.90;;;;;;5016086;28;20041;-71
2023/05/22 05:57:48;;;;;;;16.98;15.38;;;16.70;99.90;;;;;;5024714;28;20388;-71
2023/05/22 06:00:22;;;;;;;16.15;14.65;;;16.70;99.90;;;;;;5004896;28;20029;-73
2023/05/22 06:02:49;;;;;;;22.10;19.80;;;16.70;99.90;;;;;;5022630;28;21210;-72
2023/05/22 06:05:45;;;;;;;17.25;15.65;;;16.80;99.90;;;;;;4988522;28;20106;-71
2023/05/22 06:08:38;;;;;;;32.25;28.15;;;16.80;99.90;;;;;;4995535;28;20041;-70
2023/05/22 06:11:04;;;;;;;18.88;17.08;;;16.80;99.90;;;;;;5014570;28;20044;-69
2023/05/22 06:13:35;;;;;;;21.33;19.15;;;16.90;99.90;;;;;;5004053;28;20029;-69
2023/05/22 06:16:01;;;;;;;16.70;15.23;;;17.00;99.90;;;;;;5013173;28;20041;-69
2023/05/22 06:18:27;;;;;;;21.60;19.45;;;17.10;99.90;;;;;;5010664;28;20036;-71
2023/05/22 06:20:57;;;;;;;21.35;19.13;;;17.20;99.90;;;;;;5002444;28;20036;-70
2023/05/22 06:23:24;;;;;;;18.38;16.67;;;17.30;99.90;;;;;;4976296;28;20037;-72
2023/05/22 06:25:52;;;;;;;17.95;16.25;;;17.30;99.90;;;;;;4988220;28;21315;-71
2023/05/22 06:28:19;;;;;;;22.42;20.17;;;17.40;99.90;;;;;;4992130;28;20480;-71
2023/05/22 06:30:45;;;;;;;19.20;17.30;;;17.50;99.90;;;;;;5010975;28;20037;-73
2023/05/22 06:33:16;;;;;;;20.70;18.65;;;17.50;99.90;;;;;;5017660;28;20335;-73
2023/05/22 06:35:42;;;;;;;16.85;15.30;;;17.50;99.90;;;;;;5017497;28;20068;-68
2023/05/22 06:38:09;;;;;;;16.55;14.82;;;17.50;99.90;;;;;;5009857;28;20040;-76
2023/05/22 06:40:36;;;;;;;16.52;14.98;;;17.60;99.90;;;;;;5003949;28;20021;-70
2023/05/22 06:43:11;;;;;;;13.07;11.88;;;17.70;99.90;;;;;;5008798;28;20469;-70
2023/05/22 06:45:48;;;;;;;16.85;15.18;;;17.70;99.90;;;;;;4992087;28;20047;-70
2023/05/22 06:48:36;;;;;;;15.82;14.27;;;17.80;99.90;;;;;;5010204;28;20554;-70
2023/05/22 06:51:14;;;;;;;15.90;14.40;;;18.00;99.90;;;;;;4993853;28;20041;-71
2023/05/22 06:53:41;;;;;;;19.02;17.23;;;18.20;99.90;;;;;;5018962;28;20033;-70
2023/05/22 06:56:18;;;;;;;17.27;15.65;;;18.50;99.90;;;;;;5002864;28;20041;-70
2023/05/22 06:58:58;;;;;;;18.08;16.35;;;18.60;99.90;;;;;;5007416;28;21471;-70
2023/05/22 07:01:40;;;;;;;13.90;12.50;;;18.80;99.90;;;;;;4998914;28;20385;-70
2023/05/22 07:04:12;;;;;;;14.00;12.63;;;19.00;99.90;;;;;;4987704;28;20040;-70
2023/05/22 07:07:10;;;;;;;15.32;13.93;;;19.20;99.90;;;;;;5000707;28;20053;-70
2023/05/22 07:09:37;;;;;;;15.45;14.02;;;19.40;99.90;;;;;;5004083;28;20029;-70
2023/05/22 07:12:06;;;;;;;14.32;12.93;;;19.50;99.90;;;;;;4997068;28;20387;-71
2023/05/22 07:14:33;;;;;;;15.90;14.35;;;19.70;99.90;;;;;;5018372;28;20033;-71
2023/05/22 07:16:59;;;;;;;13.40;12.07;;;19.90;99.90;;;;;;5005644;28;20047;-70
2023/05/22 07:19:31;;;;;;;14.60;13.23;;;20.10;99.90;;;;;;4991368;28;20536;-70
2023/05/22 07:22:03;;;;;;;17.70;16.00;;;20.20;99.90;;;;;;5013087;28;20032;-69
2023/05/22 07:24:30;;;;;;;16.60;15.02;;;20.40;99.90;;;;;;5009737;28;20571;-69
2023/05/22 07:26:56;;;;;;;17.17;14.95;;;20.50;99.90;;;;;;5011348;28;20038;-70
2023/05/22 07:29:23;;;;;;;17.83;16.13;;;20.60;99.90;;;;;;5008659;28;20041;-70
2023/05/22 07:31:52;;;;;;;13.70;12.40;;;20.80;99.90;;;;;;5012837;28;20021;-70
2023/05/22 07:34:19;;;;;;;17.60;15.90;;;20.90;99.90;;;;;;5005241;28;20060;-69
2023/05/22 07:36:46;;;;;;;15.32;13.88;;;21.00;99.90;;;;;;5024416;28;20526;-70
2023/05/22 07:39:13;;;;;;;14.77;13.43;;;21.10;99.90;;;;;;4997259;28;20399;-69
2023/05/22 07:41:40;;;;;;;17.10;15.50;;;21.30;99.90;;;;;;4993916;28;20033;-70
2023/05/22 07:44:10;;;;;;;16.30;14.60;;;21.40;99.90;;;;;;5010983;28;20052;-69
2023/05/22 07:46:37;;;;;;;19.90;17.92;;;21.50;99.90;;;;;;5013087;28;20353;-70
2023/05/22 07:49:10;;;;;;;13.35;11.95;;;21.60;99.90;;;;;;4998302;28;20029;-73
2023/05/22 07:51:39;;;;;;;14.57;13.15;;;21.70;99.90;;;;;;4994256;28;20045;-73
2023/05/22 07:54:07;;;;;;;17.23;15.63;;;21.90;99.90;;;;;;5022877;28;20041;-73
2023/05/22 07:56:39;;;;;;;15.20;13.82;;;22.00;99.90;;;;;;5024673;28;20041;-73
2023/05/22 07:59:08;;;;;;;14.20;12.90;;;22.10;99.90;;;;;;5011060;28;20024;-70
2023/05/22 08:01:36;;;;;;;10.02;9.13;;;22.30;99.90;;;;;;5010012;28;20381;-70
2023/05/22 08:04:03;;;;;;;12.85;11.75;;;22.40;99.90;;;;;;5013320;28;20032;-71
2023/05/22 08:06:30;;;;;;;17.45;15.75;;;22.40;99.90;;;;;;5013487;28;20041;-71
2023/05/22 08:08:56;;;;;;;15.88;14.38;;;22.50;99.90;;;;;;5014801;28;20029;-71
2023/05/22 08:11:25;;;;;;;11.50;10.40;;;22.70;99.90;;;;;;5009853;28;20020;-68
2023/05/22 08:13:51;;;;;;;10.40;9.40;;;22.80;99.90;;;;;;5021786;28;20526;-69
2023/05/22 08:16:17;;;;;;;13.10;11.90;;;22.90;99.90;;;;;;5024482;28;20495;-69
2023/05/22 08:18:43;;;;;;;14.00;12.73;;;23.10;99.90;;;;;;5022049;28;20491;-70
2023/05/22 08:21:10;;;;;;;12.63;11.52;;;23.30;99.90;;;;;;5008177;28;20025;-70
2023/05/22 08:23:37;;;;;;;13.32;12.02;;;23.50;99.90;;;;;;5012088;28;20044;-69
2023/05/22 08:26:05;;;;;;;11.13;10.18;;;23.60;99.90;;;;;;5014554;28;20567;-70
2023/05/22 08:28:31;;;;;;;14.32;12.82;;;23.80;99.90;;;;;;5011291;28;20040;-69
2023/05/22 08:30:57;;;;;;;12.55;11.40;;;24.00;99.90;;;;;;5008756;28;20041;-69
2023/05/22 08:33:24;;;;;;;13.00;11.80;;;24.10;99.90;;;;;;4996367;28;20033;-70
2023/05/22 08:35:50;;;;;;;12.20;11.10;;;24.20;99.90;;;;;;5022489;28;20033;-70
2023/05/22 08:38:16;;;;;;;12.18;11.07;;;24.30;99.90;;;;;;5022712;28;20037;-71
2023/05/22 08:40:48;;;;;;;10.45;9.55;;;24.40;99.90;;;;;;5010406;28;20447;-70
2023/05/22 08:43:15;;;;;;;11.55;10.55;;;24.60;99.90;;;;;;5012390;28;20033;-71
2023/05/22 08:45:42;;;;;;;11.60;10.38;;;24.80;99.90;;;;;;5010200;28;20033;-69
2023/05/22 08:48:12;;;;;;;13.45;12.25;;;25.00;99.90;;;;;;5011432;28;20403;-73
2023/05/22 08:50:42;;;;;;;10.98;9.68;;;25.10;99.90;;;;;;5006543;28;20045;-74
2023/05/22 08:53:14;;;;;;;12.77;11.57;;;25.20;99.90;;;;;;5012041;28;20388;-76
2023/05/22 08:55:41;;;;;;;;;;;25.50;99.90;;;;;;5022038;28;20033;-72
2023/05/22 08:58:10;;;;;;;8.82;8.07;;;25.40;99.90;;;;;;5007174;28;19916;-74
2023/05/22 09:00:36;;;;;;;10.93;9.82;;;25.50;99.90;;;;;;5012142;28;20041;-70
2023/05/22 09:03:05;;;;;;;12.20;11.00;;;25.50;99.90;;;;;;5028247;28;20052;-70
2023/05/22 09:05:32;;;;;;;10.88;9.15;;;25.60;99.90;;;;;;5010095;28;20037;-70
2023/05/22 09:08:00;;;;;;;9.45;8.45;;;25.70;99.90;;;;;;5013354;28;20033;-71
2023/05/22 09:10:26;;;;;;;7.40;6.80;;;25.80;99.90;;;;;;5008664;28;20075;-70
2023/05/22 09:13:00;;;;;;;8.30;7.60;;;25.90;99.90;;;;;;5010168;28;22716;-69
2023/05/22 09:15:30;;;;;;;12.70;10.38;;;26.00;99.90;;;;;;5016850;28;20048;-70
2023/05/22 09:17:57;;;;;;;7.75;7.00;;;26.00;99.90;;;;;;5021627;28;20029;-70
2023/05/22 09:20:24;;;;;;;8.32;7.47;;;26.10;99.90;;;;;;5015703;28;20033;-70
2023/05/22 09:22:50;;;;;;;7.28;6.32;;;26.30;99.90;;;;;;4996424;28;20477;-70
2023/05/22 09:25:18;;;;;;;7.07;6.47;;;26.60;99.90;;;;;;5012628;28;20036;-71
2023/05/22 09:27:45;;;;;;;9.02;7.40;;;26.90;99.90;;;;;;5011432;28;20044;-70
2023/05/22 09:30:16;;;;;;;7.65;6.97;;;27.10;99.90;;;;;;5005254;28;20456;-70
2023/05/22 09:32:43;;;;;;;9.85;8.95;;;27.20;99.90;;;;;;5010841;28;20575;-71
2023/05/22 09:35:09;;;;;;;10.05;9.15;;;27.20;99.90;;;;;;5009221;28;20372;-69
2023/05/22 09:37:35;;;;;;;10.68;9.48;;;27.30;99.90;;;;;;5019016;28;20479;-70
2023/05/22 09:40:07;;;;;;;9.00;8.20;;;27.40;99.90;;;;;;5016189;28;20280;-70
2023/05/22 09:42:33;;;;;;;10.95;8.45;;;27.40;99.90;;;;;;4996682;28;20033;-70
2023/05/22 09:45:07;;;;;;;9.43;8.25;;;27.30;99.90;;;;;;5023953;28;20037;-71
2023/05/22 09:47:34;;;;;;;9.77;8.77;;;27.20;99.90;;;;;;5008408;28;20416;-70
2023/05/22 09:50:07;;;;;;;9.68;8.68;;;27.00;99.90;;;;;;5005355;28;20048;-70
2023/05/22 09:52:34;;;;;;;9.25;8.35;;;26.80;99.90;;;;;;5009699;28;20404;-70
2023/05/22 09:55:05;;;;;;;8.68;7.95;;;26.60;99.90;;;;;;5010454;28;20036;-70
2023/05/22 09:57:44;;;;;;;7.75;7.05;;;26.50;99.90;;;;;;5003663;28;20041;-70
2023/05/22 10:00:13;;;;;;;14.25;10.63;;;26.70;99.90;;;;;;5016239;28;20029;-70
2023/05/22 10:02:43;;;;;;;10.32;8.32;;;27.00;99.90;;;;;;5017091;28;20045;-70
2023/05/22 10:05:11;;;;;;;8.35;7.45;;;27.30;99.90;;;;;;4993553;28;20500;-73
2023/05/22 10:07:48;;;;;;;11.02;9.93;;;27.60;99.90;;;;;;4993960;28;20052;-75
2023/05/22 10:10:20;;;;;;;7.60;7.00;;;27.80;99.90;;;;;;5007763;28;20024;-73
2023/05/22 10:12:52;;;;;;;;;;;28.00;99.90;;;;;;5010502;28;20040;-73
2023/05/22 10:15:19;;;;;;;13.25;10.15;;;28.10;99.90;;;;;;5011388;28;19924;-74
2023/05/22 10:17:46;;;;;;;9.35;8.55;;;28.00;99.90;;;;;;5018035;28;20033;-69
2023/05/22 10:20:14;;;;;;;11.05;10.00;;;27.90;99.90;;;;;;5017293;28;20036;-69
2023/05/22 10:22:40;;;;;;;15.88;11.40;;;27.80;99.90;;;;;;5001326;28;20041;-72
2023/05/22 10:25:07;;;;;;;12.02;10.50;;;27.90;99.90;;;;;;5010896;28;20571;-72
2023/05/22 10:27:34;;;;;;;9.93;7.75;;;28.00;99.90;;;;;;5006812;28;20396;-71
2023/05/22 10:30:17;;;;;;;15.82;12.63;;;28.10;99.90;;;;;;5001750;28;20024;-71
2023/05/22 10:33:12;;;;;;;9.30;8.38;;;28.20;99.90;;;;;;5005922;28;20606;-74
2023/05/22 10:35:45;;;;;;;9.68;8.68;;;28.10;99.90;;;;;;5006093;28;20033;-71
2023/05/22 10:38:20;;;;;;;12.23;11.13;;;28.00;99.90;;;;;;4990971;28;20744;-72
2023/05/22 10:40:47;;;;;;;10.45;8.90;;;28.10;99.90;;;;;;5013455;28;20037;-69
2023/05/22 10:43:13;;;;;;;9.00;8.20;;;28.40;99.90;;;;;;5017528;28;20029;-69
2023/05/22 10:45:40;;;;;;;9.50;8.70;;;28.80;99.90;;;;;;5014650;28;20029;-69
2023/05/22 10:48:08;;;;;;;10.48;8.32;;;29.20;99.90;;;;;;5008311;28;20037;-70
2023/05/22 10:50:35;;;;;;;8.95;7.90;;;29.60;99.90;;;;;;5005414;28;20041;-70
2023/05/22 10:53:19;;;;;;;7.28;6.68;;;30.00;99.90;;;;;;5007505;28;20041;-69
2023/05/22 10:55:56;;;;;;;8.52;7.82;;;30.60;99.90;;;;;;5010557;28;20059;-69
2023/05/22 10:58:30;;;;;;;7.60;7.00;;;30.90;99.40;;;;;;5012573;28;20036;-69
2023/05/22 11:01:12;;;;;;;8.55;7.75;;;30.70;98.50;;;;;;4984470;28;20037;-69
2023/05/22 11:03:58;;;;;;;6.93;6.32;;;30.70;97.60;;;;;;5022128;28;20217;-70
2023/05/22 11:06:44;;;;;;;8.55;7.80;;;30.50;97.30;;;;;;5013618;28;20044;-69
2023/05/22 11:09:17;;;;;;;8.73;8.02;;;30.20;96.70;;;;;;5009013;28;20376;-68
2023/05/22 11:12:07;;;;;;;7.85;7.05;;;30.00;96.60;;;;;;5007904;28;20477;-68
2023/05/22 11:14:35;;;;;;;8.50;7.72;;;29.80;96.50;;;;;;5009491;28;20083;-69
2023/05/22 11:17:01;;;;;;;6.90;6.28;;;29.60;96.30;;;;;;5023440;28;20301;-68
2023/05/22 11:19:28;;;;;;;6.97;6.30;;;29.50;95.90;;;;;;5023778;28;20697;-67
2023/05/22 11:22:00;;;;;;;8.15;7.45;;;29.30;96.10;;;;;;5017797;28;20068;-68
2023/05/22 11:24:30;;;;;;;;;;;29.50;96.10;;;;;;5021542;28;21644;-69
2023/05/22 11:27:01;;;;;;;6.68;6.00;;;30.10;96.20;;;;;;5019405;28;20332;-67
2023/05/22 11:29:29;;;;;;;8.80;7.90;;;31.10;96.00;;;;;;5007947;28;20040;-68
2023/05/22 11:32:00;;;;;;;8.02;7.32;;;31.80;94.20;;;;;;5008165;28;20064;-68
2023/05/22 11:34:26;;;;;;;7.38;6.78;;;31.70;92.70;;;;;;5019101;28;20116;-68
2023/05/22 11:36:58;;;;;;;7.05;6.35;;;31.30;92.40;;;;;;5006075;28;20032;-68
2023/05/22 11:39:25;;;;;;;;;;;31.00;92.60;;;;;;5004746;28;20416;-68
2023/05/22 11:41:51;;;;;;;7.18;6.57;;;30.60;92.60;;;;;;5012084;28;20703;-67
2023/05/22 11:44:17;;;;;;;6.47;5.88;;;30.30;92.40;;;;;;5017592;28;20037;-68
2023/05/22 11:46:45;;;;;;;6.90;6.25;;;30.10;92.60;;;;;;5020336;28;20036;-69
2023/05/22 11:49:12;;;;;;;9.25;8.18;;;29.80;92.60;;;;;;5006083;28;20033;-69
2023/05/22 11:51:41;;;;;;;6.97;6.38;;;29.50;92.50;;;;;;4988236;28;20071;-68
2023/05/22 11:54:07;;;;;;;7.43;6.70;;;29.30;92.60;;;;;;5007093;28;20047;-68
2023/05/22 11:56:33;;;;;;;7.60;6.95;;;29.10;92.50;;;;;;5008380;28;20408;-68
2023/05/22 11:59:00;;;;;;;6.22;5.63;;;29.00;92.60;;;;;;5006033;28;20392;-69
2023/05/22 12:01:26;;;;;;;10.90;7.97;;;28.80;92.90;;;;;;5005150;28;20056;-67
2023/05/22 12:03:53;;;;;;;7.35;6.75;;;28.70;94.10;;;;;;5018798;28;20037;-67
2023/05/22 12:06:20;;;;;;;7.20;6.50;;;28.40;94.70;;;;;;5019976;28;20056;-68
2023/05/22 12:08:46;;;;;;;8.25;7.47;;;28.00;95.90;;;;;;5019709;28;20028;-67
2023/05/22 12:11:13;;;;;;;7.80;7.10;;;27.70;96.60;;;;;;5005331;28;20143;-69
2023/05/22 12:13:40;;;;;;;9.00;7.72;;;27.50;97.80;;;;;;5008949;28;20339;-70
2023/05/22 12:16:22;;;;;;;8.25;7.45;;;27.40;98.60;;;;;;5009317;28;20049;-69
2023/05/22 12:18:54;;;;;;;9.43;8.45;;;27.50;99.80;;;;;;4993256;28;20040;-69
2023/05/22 12:21:21;;;;;;;8.40;7.70;;;28.40;99.90;;;;;;5008650;28;20037;-68
2023/05/22 12:23:49;;;;;;;9.40;8.05;;;29.60;99.90;;;;;;5015179;28;20381;-69
2023/05/22 12:26:16;;;;;;;8.05;7.28;;;30.60;98.50;;;;;;5003889;28;20064;-70
2023/05/22 12:28:42;;;;;;;9.02;8.10;;;31.30;97.40;;;;;;5007960;28;20059;-68
2023/05/22 12:31:09;;;;;;;9.60;8.73;;;31.30;96.60;;;;;;5012973;28;20037;-68
2023/05/22 12:33:38;;;;;;;7.47;6.88;;;31.40;95.30;;;;;;5007520;28;20528;-68
2023/05/22 12:36:08;;;;;;;8.02;7.30;;;31.70;94.50;;;;;;5009754;28;20036;-69
2023/05/22 12:38:37;;;;;;;8.13;7.30;;;31.50;94.80;;;;;;5010118;28;20033;-69
2023/05/22 12:41:04;;;;;;;7.80;7.10;;;30.90;94.40;;;;;;5007017;28;20060;-70
2023/05/22 12:43:30;;;;;;;8.80;8.00;;;30.40;94.40;;;;;;4993917;28;20076;-68